Time;durP1;ratioP1;P1;durP2;ratioP2;P2;SDS_P1;SDS_P2;PMS_P1;PMS_P2;Temp;Humidity;BMP_temperature;BMP_pressure;BME280_temperature;BME280_humidity;BME280_pressure;Samples;Min_cycle;Max_cycle;Signal;HPM_P1;HPM_P2
2022/07/07 00:01:20;;;;;;;7.45;5.65;;;14.30;99.90;;;;;;5055458;28;20025;-72
2022/07/07 00:03:45;;;;;;;6.10;5.60;;;14.20;99.90;;;;;;5055507;28;20059;-72
2022/07/07 00:06:11;;;;;;;6.45;5.90;;;14.20;99.90;;;;;;5055377;28;20099;-72
2022/07/07 00:08:37;;;;;;;6.90;6.20;;;14.10;99.90;;;;;;5054057;28;20033;-72
2022/07/07 00:11:02;;;;;;;7.20;6.45;;;14.10;99.90;;;;;;5055555;28;20036;-72
2022/07/07 00:13:28;;;;;;;6.88;6.28;;;14.10;99.90;;;;;;5053974;28;20453;-72
2022/07/07 00:15:54;;;;;;;6.72;5.85;;;14.10;99.90;;;;;;5055200;28;20104;-72
2022/07/07 00:18:19;;;;;;;9.75;6.35;;;14.10;99.90;;;;;;5055051;28;20033;-72
2022/07/07 00:20:45;;;;;;;6.45;5.85;;;14.10;99.90;;;;;;5053485;28;20037;-72
2022/07/07 00:23:11;;;;;;;6.32;5.57;;;14.10;99.90;;;;;;5055217;28;20078;-72
2022/07/07 00:25:36;;;;;;;10.73;6.68;;;14.10;99.90;;;;;;5054983;28;20026;-72
2022/07/07 00:28:02;;;;;;;7.80;6.55;;;14.10;99.90;;;;;;5055225;28;20377;-72
2022/07/07 00:30:27;;;;;;;7.22;6.43;;;14.10;99.90;;;;;;5053646;28;20031;-71
2022/07/07 00:32:53;;;;;;;6.90;6.30;;;14.00;99.90;;;;;;5053615;28;20033;-72
2022/07/07 00:35:19;;;;;;;9.73;6.85;;;14.00;99.90;;;;;;5054845;28;20133;-71
2022/07/07 00:37:44;;;;;;;6.43;5.88;;;13.90;99.90;;;;;;5053454;28;20037;-72
2022/07/07 00:40:10;;;;;;;6.25;5.47;;;13.90;99.90;;;;;;5054761;28;20040;-71
2022/07/07 00:42:36;;;;;;;6.05;5.57;;;13.90;99.90;;;;;;5054717;28;20074;-72
2022/07/07 00:45:02;;;;;;;6.75;5.75;;;13.90;99.90;;;;;;5053335;28;20123;-71
2022/07/07 00:47:30;;;;;;;6.47;5.93;;;13.80;99.90;;;;;;5053250;28;20066;-72
2022/07/07 00:49:56;;;;;;;7.72;6.60;;;13.80;99.90;;;;;;5054537;28;20033;-72
2022/07/07 00:52:22;;;;;;;7.38;6.78;;;13.90;99.90;;;;;;5052794;28;20040;-71
2022/07/07 00:54:52;;;;;;;8.68;7.88;;;13.80;99.90;;;;;;5054591;28;20029;-71
2022/07/07 00:57:18;;;;;;;7.68;6.88;;;13.80;99.90;;;;;;5052952;28;20132;-72
2022/07/07 00:59:44;;;;;;;10.73;7.97;;;13.70;99.90;;;;;;5054427;28;20112;-72
2022/07/07 01:02:09;;;;;;;8.43;7.63;;;13.80;99.90;;;;;;5053118;28;20025;-72
2022/07/07 01:04:35;;;;;;;9.95;7.82;;;13.80;99.90;;;;;;5054596;28;20102;-72
2022/07/07 01:07:01;;;;;;;12.23;7.82;;;13.80;99.90;;;;;;5054557;28;20035;-72
2022/07/07 01:09:28;;;;;;;10.75;8.55;;;13.80;99.90;;;;;;5053906;28;20028;-72
2022/07/07 01:11:55;;;;;;;8.57;7.40;;;13.80;99.90;;;;;;5054441;28;20483;-72
2022/07/07 01:14:22;;;;;;;8.77;7.97;;;13.80;99.90;;;;;;5054108;28;20029;-72
2022/07/07 01:16:49;;;;;;;7.85;7.13;;;13.90;99.90;;;;;;5052734;28;20442;-72
2022/07/07 01:19:15;;;;;;;7.85;7.07;;;13.80;99.90;;;;;;5054080;28;20036;-72
2022/07/07 01:22:03;;;;;;;8.98;6.53;;;13.80;99.90;;;;;;5052716;28;20025;-72
2022/07/07 01:24:30;;;;;;;7.13;6.43;;;13.80;99.90;;;;;;5054019;28;20108;-72
2022/07/07 01:27:10;;;;;;;7.97;7.18;;;13.70;99.90;;;;;;5054001;28;20408;-72
2022/07/07 01:29:41;;;;;;;7.20;6.60;;;13.70;99.90;;;;;;5054404;28;20025;-72
2022/07/07 01:32:08;;;;;;;7.95;7.15;;;13.70;99.90;;;;;;5053949;28;20054;-72
2022/07/07 01:34:38;;;;;;;8.13;6.45;;;13.70;99.90;;;;;;5053860;28;20025;-72
2022/07/07 01:37:04;;;;;;;11.70;6.63;;;13.70;99.90;;;;;;5052731;28;20037;-72
2022/07/07 01:39:31;;;;;;;7.82;7.13;;;13.70;99.90;;;;;;5053739;28;20457;-72
2022/07/07 01:41:56;;;;;;;7.75;6.90;;;13.70;99.90;;;;;;5053898;28;20584;-72
2022/07/07 01:44:22;;;;;;;7.20;6.45;;;13.70;99.90;;;;;;5053477;28;20059;-71
2022/07/07 01:46:48;;;;;;;7.40;6.80;;;13.70;99.90;;;;;;5053713;28;20100;-72
2022/07/07 01:49:13;;;;;;;9.50;6.80;;;13.70;99.90;;;;;;5053687;28;20036;-71
2022/07/07 01:51:39;;;;;;;7.25;6.57;;;13.70;99.90;;;;;;5052420;28;20025;-72
2022/07/07 01:54:05;;;;;;;7.72;6.40;;;13.70;99.90;;;;;;5052407;28;20457;-72
2022/07/07 01:56:31;;;;;;;7.55;6.43;;;13.70;99.90;;;;;;5053334;28;20461;-71
2022/07/07 01:58:56;;;;;;;8.95;6.22;;;13.70;99.90;;;;;;5053298;28;20104;-72
2022/07/07 02:01:22;;;;;;;6.63;6.03;;;13.70;99.90;;;;;;5053569;28;20027;-72
2022/07/07 02:03:49;;;;;;;6.40;5.80;;;13.70;99.90;;;;;;5052275;28;20384;-72
2022/07/07 02:06:14;;;;;;;6.22;5.72;;;13.70;99.90;;;;;;5055792;28;20025;-72
2022/07/07 02:08:40;;;;;;;6.22;5.63;;;13.80;99.90;;;;;;5057610;28;20029;-72
2022/07/07 02:11:14;;;;;;;6.80;6.15;;;13.80;99.90;;;;;;5057839;28;20029;-72
2022/07/07 02:13:43;;;;;;;6.57;5.75;;;13.70;99.90;;;;;;5057579;28;20070;-72
2022/07/07 02:16:10;;;;;;;6.97;5.70;;;13.70;99.90;;;;;;5057465;28;20029;-71
2022/07/07 02:18:37;;;;;;;7.18;6.22;;;13.80;99.90;;;;;;5056570;28;20631;-72
2022/07/07 02:21:04;;;;;;;7.38;5.20;;;13.80;99.90;;;;;;5056142;28;20083;-72
2022/07/07 02:23:30;;;;;;;6.05;5.35;;;13.80;99.90;;;;;;5057767;28;20036;-71
2022/07/07 02:25:56;;;;;;;6.55;5.53;;;13.80;99.90;;;;;;5057250;28;20036;-71
2022/07/07 02:28:23;;;;;;;5.72;5.15;;;13.90;99.90;;;;;;5055636;28;20040;-71
2022/07/07 02:30:50;;;;;;;5.95;5.45;;;13.90;99.90;;;;;;5057217;28;20376;-72
2022/07/07 02:33:16;;;;;;;7.95;5.22;;;13.90;99.90;;;;;;5057094;28;20033;-71
2022/07/07 02:35:42;;;;;;;6.57;5.20;;;13.90;99.90;;;;;;5057381;28;20112;-71
2022/07/07 02:38:08;;;;;;;5.72;5.07;;;13.90;99.90;;;;;;5055564;28;20060;-71
2022/07/07 02:40:33;;;;;;;9.27;5.32;;;13.90;99.90;;;;;;5055439;28;20029;-71
2022/07/07 02:42:59;;;;;;;5.15;4.78;;;13.90;99.90;;;;;;5055408;28;20029;-71
2022/07/07 02:45:25;;;;;;;6.00;5.50;;;13.90;99.90;;;;;;5056881;28;20032;-71
2022/07/07 02:47:51;;;;;;;5.40;4.57;;;13.90;99.90;;;;;;5057149;28;20033;-71
2022/07/07 02:50:16;;;;;;;5.55;4.65;;;13.90;99.90;;;;;;5056795;28;20029;-71
2022/07/07 02:52:42;;;;;;;5.55;5.03;;;13.90;99.90;;;;;;5056829;28;20078;-71
2022/07/07 02:55:08;;;;;;;5.90;5.22;;;13.90;99.90;;;;;;5056774;28;20075;-71
2022/07/07 02:57:34;;;;;;;6.32;5.20;;;13.90;99.90;;;;;;5055844;28;20053;-71
2022/07/07 02:59:59;;;;;;;5.43;5.03;;;13.90;99.90;;;;;;5055865;28;20564;-71
2022/07/07 03:02:25;;;;;;;5.68;5.18;;;13.90;99.90;;;;;;5054312;28;20449;-71
2022/07/07 03:04:51;;;;;;;7.80;4.60;;;14.00;99.90;;;;;;5055397;28;20103;-71
2022/07/07 03:07:19;;;;;;;5.20;4.70;;;14.00;99.90;;;;;;5055038;28;20053;-72
2022/07/07 03:09:45;;;;;;;5.25;4.85;;;14.10;99.90;;;;;;5054008;28;20067;-72
2022/07/07 03:12:11;;;;;;;6.05;5.07;;;14.00;99.90;;;;;;5055255;28;20057;-71
2022/07/07 03:14:37;;;;;;;4.95;4.55;;;14.10;99.90;;;;;;5053949;28;20433;-71
2022/07/07 03:17:03;;;;;;;5.47;4.95;;;14.10;99.90;;;;;;5053479;28;20064;-71
2022/07/07 03:19:28;;;;;;;6.45;5.03;;;14.10;99.90;;;;;;5055214;28;20086;-71
2022/07/07 03:21:54;;;;;;;8.15;4.80;;;14.10;99.90;;;;;;5054113;28;20423;-71
2022/07/07 03:24:19;;;;;;;4.85;4.40;;;14.00;99.90;;;;;;5055041;28;20377;-72
2022/07/07 03:26:45;;;;;;;6.03;4.95;;;14.00;99.90;;;;;;5054019;28;20026;-72
2022/07/07 03:29:10;;;;;;;6.00;4.43;;;14.00;99.90;;;;;;5053949;28;20025;-72
2022/07/07 03:31:36;;;;;;;5.05;4.55;;;14.00;99.90;;;;;;5054604;28;20480;-72
2022/07/07 03:34:02;;;;;;;4.88;4.47;;;14.00;99.90;;;;;;5054858;28;20032;-72
2022/07/07 03:36:28;;;;;;;5.57;5.13;;;14.10;99.90;;;;;;5053487;28;20117;-71
2022/07/07 03:38:53;;;;;;;6.35;5.20;;;14.10;99.90;;;;;;5054849;28;20033;-72
2022/07/07 03:41:19;;;;;;;7.18;5.47;;;14.10;99.90;;;;;;5054798;28;20078;-71
2022/07/07 03:43:45;;;;;;;5.30;4.63;;;14.20;99.90;;;;;;5054743;28;20041;-72
2022/07/07 03:46:10;;;;;;;7.03;4.80;;;14.20;99.90;;;;;;5053487;28;20453;-72
2022/07/07 03:48:36;;;;;;;5.10;4.70;;;14.30;99.90;;;;;;5053346;28;20461;-72
2022/07/07 03:51:01;;;;;;;4.75;4.35;;;14.30;99.90;;;;;;5053388;28;20037;-72
2022/07/07 03:53:27;;;;;;;5.07;4.57;;;14.40;99.90;;;;;;5054328;28;20021;-72
2022/07/07 03:55:53;;;;;;;4.97;4.55;;;14.40;99.90;;;;;;5054480;28;20480;-71
2022/07/07 03:58:18;;;;;;;4.60;4.25;;;14.40;99.90;;;;;;5016464;28;1102940;-72
2022/07/07 04:00:44;;;;;;;6.97;5.47;;;14.40;99.90;;;;;;5055747;28;20116;-72
2022/07/07 04:03:09;;;;;;;5.18;3.90;;;14.40;99.90;;;;;;5054121;28;20025;-72
2022/07/07 04:05:35;;;;;;;5.15;4.65;;;14.40;99.90;;;;;;5055095;28;20048;-72
2022/07/07 04:08:01;;;;;;;7.00;4.53;;;14.40;99.90;;;;;;5055408;28;20393;-72
2022/07/07 04:10:27;;;;;;;4.50;4.05;;;14.40;99.90;;;;;;5055154;28;20051;-72
2022/07/07 04:12:56;;;;;;;4.78;4.38;;;14.50;99.90;;;;;;5054529;28;20021;-72
2022/07/07 04:15:21;;;;;;;5.68;4.72;;;14.50;99.90;;;;;;5053873;28;20389;-72
2022/07/07 04:17:47;;;;;;;5.82;4.35;;;14.50;99.90;;;;;;5053967;28;20029;-71
2022/07/07 04:20:12;;;;;;;8.45;4.57;;;14.50;99.90;;;;;;5054793;28;20033;-71
2022/07/07 04:22:38;;;;;;;4.40;3.92;;;14.60;99.90;;;;;;5055094;28;20108;-72
2022/07/07 04:25:04;;;;;;;6.22;4.20;;;14.60;99.90;;;;;;5053844;28;20021;-72
2022/07/07 04:27:30;;;;;;;4.63;4.15;;;14.60;99.90;;;;;;5054058;28;20103;-72
2022/07/07 04:29:55;;;;;;;6.32;4.15;;;14.70;99.90;;;;;;5054641;28;20035;-73
2022/07/07 04:32:21;;;;;;;4.32;3.90;;;14.80;99.90;;;;;;5054766;28;20029;-72
2022/07/07 04:34:47;;;;;;;4.78;4.30;;;14.80;99.90;;;;;;5054849;28;20060;-71
2022/07/07 04:37:13;;;;;;;4.72;4.32;;;14.90;99.90;;;;;;5054623;28;20025;-73
2022/07/07 04:39:38;;;;;;;4.53;4.13;;;15.00;99.90;;;;;;5054372;28;20047;-73
2022/07/07 04:42:04;;;;;;;5.88;3.75;;;15.10;99.90;;;;;;5054532;28;20075;-74
2022/07/07 04:44:30;;;;;;;4.40;4.00;;;15.10;99.90;;;;;;5053434;28;20025;-72
2022/07/07 04:46:56;;;;;;;4.28;3.85;;;15.20;99.90;;;;;;5053222;28;20089;-73
2022/07/07 04:49:22;;;;;;;5.43;4.40;;;15.20;99.90;;;;;;5054165;28;20025;-73
2022/07/07 04:51:48;;;;;;;4.65;4.18;;;15.20;99.90;;;;;;5054361;28;20025;-73
2022/07/07 04:54:14;;;;;;;4.50;4.00;;;15.20;99.90;;;;;;5054460;28;20457;-73
2022/07/07 04:56:39;;;;;;;8.38;4.40;;;15.20;99.90;;;;;;5052751;28;20029;-72
2022/07/07 04:59:05;;;;;;;5.22;4.35;;;15.20;99.90;;;;;;5054334;28;20029;-73
2022/07/07 05:01:30;;;;;;;4.60;3.83;;;15.20;99.90;;;;;;5054033;28;20025;-73
2022/07/07 05:03:56;;;;;;;7.47;4.50;;;15.30;99.90;;;;;;5054417;28;20032;-74
2022/07/07 05:06:22;;;;;;;4.60;4.20;;;15.40;99.90;;;;;;5053970;28;20055;-73
2022/07/07 05:08:48;;;;;;;4.32;4.03;;;15.40;99.90;;;;;;5052859;28;20079;-73
2022/07/07 05:11:13;;;;;;;4.55;4.07;;;15.40;99.90;;;;;;5053917;28;20033;-73
2022/07/07 05:13:39;;;;;;;6.32;4.03;;;15.50;99.90;;;;;;5054104;28;20029;-73
2022/07/07 05:16:05;;;;;;;6.05;4.47;;;15.40;99.90;;;;;;5052808;28;20035;-72
2022/07/07 05:18:31;;;;;;;4.32;3.92;;;15.40;99.90;;;;;;5052377;28;20120;-72
2022/07/07 05:20:57;;;;;;;4.05;3.67;;;15.50;99.90;;;;;;5054293;28;20068;-73
2022/07/07 05:23:25;;;;;;;4.55;3.90;;;15.50;99.90;;;;;;5053741;28;20461;-72
2022/07/07 05:25:51;;;;;;;3.55;3.33;;;15.50;99.90;;;;;;5053209;28;20036;-71
2022/07/07 05:28:17;;;;;;;4.20;3.90;;;15.50;99.90;;;;;;5053587;28;20039;-73
2022/07/07 05:30:43;;;;;;;4.28;3.67;;;15.60;99.90;;;;;;5052525;28;20453;-72
2022/07/07 05:33:08;;;;;;;5.38;3.60;;;15.70;99.90;;;;;;5053855;28;20061;-71
2022/07/07 05:35:35;;;;;;;4.15;3.78;;;15.70;99.90;;;;;;5052457;28;20027;-70
2022/07/07 05:38:01;;;;;;;6.68;4.00;;;15.80;99.90;;;;;;5053630;28;20033;-72
2022/07/07 05:40:28;;;;;;;3.72;3.40;;;16.00;99.90;;;;;;5053583;28;20028;-72
2022/07/07 05:42:53;;;;;;;5.97;3.35;;;16.30;99.90;;;;;;5053358;28;20055;-72
2022/07/07 05:45:19;;;;;;;3.88;3.28;;;16.50;99.90;;;;;;5053702;28;20430;-70
2022/07/07 05:47:45;;;;;;;3.17;2.97;;;16.70;99.90;;;;;;5054022;28;20033;-71
2022/07/07 05:50:11;;;;;;;4.00;2.30;;;17.00;99.90;;;;;;5053782;28;20078;-70
2022/07/07 05:52:37;;;;;;;6.82;2.42;;;17.30;99.90;;;;;;5053652;28;20025;-68
2022/07/07 05:55:03;;;;;;;2.83;2.08;;;17.70;99.90;;;;;;5053543;28;20025;-59
2022/07/07 05:57:29;;;;;;;3.55;2.00;;;18.10;99.90;;;;;;5053329;28;20397;-61
2022/07/07 05:59:54;;;;;;;6.45;2.55;;;18.50;99.90;;;;;;5053546;28;20029;-59
2022/07/07 06:02:20;;;;;;;4.45;2.17;;;18.80;99.90;;;;;;5053759;28;20108;-59
2022/07/07 06:04:46;;;;;;;5.75;1.80;;;19.10;99.90;;;;;;5053608;28;20499;-60
2022/07/07 06:07:11;;;;;;;2.08;1.88;;;19.20;99.90;;;;;;5053456;28;20033;-60
2022/07/07 06:09:37;;;;;;;14.02;2.70;;;19.40;99.90;;;;;;5053348;28;20056;-60
2022/07/07 06:12:02;;;;;;;2.80;1.73;;;19.50;99.90;;;;;;5053113;28;20075;-61
2022/07/07 06:14:28;;;;;;;3.17;1.30;;;19.60;99.90;;;;;;5053176;28;20100;-60
2022/07/07 06:16:54;;;;;;;2.35;1.50;;;19.80;99.90;;;;;;5053465;28;20457;-61
2022/07/07 06:19:20;;;;;;;1.95;1.40;;;20.00;99.90;;;;;;5053497;28;20370;-59
2022/07/07 06:21:45;;;;;;;4.90;1.30;;;20.30;99.90;;;;;;5053581;28;20079;-60
2022/07/07 06:24:11;;;;;;;3.83;1.50;;;20.50;99.90;;;;;;5054066;28;20071;-60
2022/07/07 06:26:37;;;;;;;4.88;1.92;;;20.70;99.90;;;;;;5053129;28;20075;-76
2022/07/07 06:29:03;;;;;;;5.65;1.80;;;20.90;99.90;;;;;;5053276;28;20385;-60
2022/07/07 06:31:29;;;;;;;7.10;1.42;;;21.10;99.90;;;;;;5053253;28;20025;-60
2022/07/07 06:33:55;;;;;;;5.55;1.45;;;21.30;99.90;;;;;;5052949;28;20461;-60
2022/07/07 06:36:21;;;;;;;4.38;1.23;;;21.60;99.10;;;;;;5053117;28;20027;-60
2022/07/07 06:38:46;;;;;;;8.32;1.58;;;21.80;98.30;;;;;;5053171;28;20499;-60
2022/07/07 06:41:12;;;;;;;3.50;1.60;;;22.10;96.90;;;;;;5052989;28;20029;-60
2022/07/07 06:43:38;;;;;;;2.15;1.13;;;22.30;96.30;;;;;;5053243;28;20032;-60
2022/07/07 06:46:03;;;;;;;1.70;1.20;;;22.50;94.90;;;;;;5053136;28;20486;-60
2022/07/07 06:48:29;;;;;;;18.80;2.00;;;22.60;94.40;;;;;;5053088;28;20037;-61
2022/07/07 06:50:55;;;;;;;1.70;1.38;;;22.60;93.60;;;;;;5054103;28;20032;-60
2022/07/07 06:53:20;;;;;;;5.20;1.40;;;22.60;92.40;;;;;;5056326;28;20028;-60
2022/07/07 06:55:47;;;;;;;3.95;1.20;;;22.60;92.40;;;;;;5056682;28;20036;-60
2022/07/07 06:58:13;;;;;;;1.73;1.08;;;22.60;94.00;;;;;;5056570;28;20555;-60
2022/07/07 07:00:39;;;;;;;1.58;1.20;;;22.80;92.20;;;;;;5056622;28;20056;-58
2022/07/07 07:03:05;;;;;;;1.40;1.13;;;23.00;91.50;;;;;;5056612;28;20075;-58
2022/07/07 07:05:31;;;;;;;4.68;1.17;;;22.80;89.60;;;;;;5056532;28;20021;-60
2022/07/07 07:07:57;;;;;;;8.27;1.13;;;22.80;90.40;;;;;;5056176;28;20037;-60
2022/07/07 07:10:22;;;;;;;9.07;1.40;;;23.00;88.80;;;;;;5056369;28;20090;-60
2022/07/07 07:12:48;;;;;;;7.30;0.90;;;23.00;87.30;;;;;;5056466;28;20519;-60
2022/07/07 07:15:13;;;;;;;1.42;1.30;;;23.10;87.20;;;;;;5056036;28;20119;-58
2022/07/07 07:17:39;;;;;;;1.55;1.00;;;23.30;86.00;;;;;;5056172;28;20033;-58
2022/07/07 07:20:05;;;;;;;1.40;1.05;;;23.40;83.10;;;;;;5056206;28;20114;-58
2022/07/07 07:22:38;;;;;;;1.60;1.13;;;23.50;82.80;;;;;;5056331;28;20032;-58
2022/07/07 07:25:04;;;;;;;1.75;1.10;;;23.60;81.10;;;;;;5055854;28;20025;-58
2022/07/07 07:27:30;;;;;;;3.50;1.10;;;23.90;78.40;;;;;;5055951;28;20033;-58
2022/07/07 07:29:56;;;;;;;3.20;1.00;;;24.00;77.80;;;;;;5055871;28;20033;-58
2022/07/07 07:32:21;;;;;;;2.25;0.90;;;24.00;76.10;;;;;;5055847;28;20424;-58
2022/07/07 07:34:47;;;;;;;2.05;0.80;;;24.40;75.00;;;;;;5055683;28;20033;-58
2022/07/07 07:37:13;;;;;;;4.43;0.98;;;24.70;71.00;;;;;;5055394;28;20025;-58
2022/07/07 07:39:38;;;;;;;1.65;0.80;;;24.70;69.00;;;;;;5056041;28;20033;-58
2022/07/07 07:42:04;;;;;;;1.73;0.80;;;24.70;69.60;;;;;;5055697;28;20074;-58
2022/07/07 07:47:14;;;;;;;4.88;1.00;;;24.70;68.60;;;;;;5055613;28;20056;-58
2022/07/07 07:49:40;;;;;;;4.03;1.13;;;24.80;66.60;;;;;;5055622;28;20453;-58
2022/07/07 07:52:06;;;;;;;2.17;1.05;;;24.70;67.00;;;;;;5055752;28;20025;-57
2022/07/07 07:54:31;;;;;;;2.95;0.88;;;24.60;65.00;;;;;;5055829;28;20056;-58
2022/07/07 07:56:57;;;;;;;1.17;1.00;;;24.60;63.90;;;;;;5055192;28;20049;-58
2022/07/07 07:59:23;;;;;;;3.83;0.85;;;24.30;64.80;;;;;;5055875;28;20021;-58
2022/07/07 08:01:48;;;;;;;3.25;1.08;;;24.10;65.50;;;;;;5054864;28;20036;-57
2022/07/07 08:04:14;;;;;;;5.72;0.75;;;24.10;66.30;;;;;;5054839;28;20524;-58
2022/07/07 08:06:40;;;;;;;3.72;1.08;;;23.80;64.80;;;;;;5055346;28;20033;-59
2022/07/07 08:09:06;;;;;;;2.67;1.23;;;23.50;65.50;;;;;;5055343;28;20142;-59
2022/07/07 08:11:32;;;;;;;8.57;1.65;;;23.10;66.40;;;;;;5055223;28;20153;-59
2022/07/07 08:13:57;;;;;;;4.55;1.23;;;23.20;66.00;;;;;;5055463;28;20021;-60
2022/07/07 08:16:23;;;;;;;1.55;0.93;;;23.20;66.60;;;;;;5055192;28;20025;-59
2022/07/07 08:18:49;;;;;;;4.55;0.70;;;23.40;66.20;;;;;;5055114;28;20041;-59
2022/07/07 08:21:14;;;;;;;5.18;0.95;;;23.50;67.20;;;;;;5054836;28;20106;-70
2022/07/07 08:23:40;;;;;;;4.30;1.02;;;23.70;65.80;;;;;;5053827;28;20083;-67
2022/07/07 08:26:06;;;;;;;1.63;0.90;;;23.90;65.00;;;;;;5054982;28;20519;-68
2022/07/07 08:28:32;;;;;;;1.83;1.15;;;24.20;64.30;;;;;;5055013;28;20033;-73
2022/07/07 08:30:57;;;;;;;3.05;1.30;;;24.60;64.60;;;;;;5053778;28;20083;-71
2022/07/07 08:33:23;;;;;;;2.05;1.00;;;24.80;62.90;;;;;;5054827;28;20025;-71
2022/07/07 08:35:49;;;;;;;3.63;1.10;;;25.30;63.10;;;;;;5054776;28;20104;-71
2022/07/07 08:38:14;;;;;;;1.30;1.05;;;25.40;61.00;;;;;;5054729;28;20564;-69
2022/07/07 08:40:40;;;;;;;1.42;0.88;;;25.20;60.40;;;;;;5055071;28;20025;-68
2022/07/07 08:43:06;;;;;;;2.25;0.90;;;25.00;60.20;;;;;;5054321;28;20031;-67
2022/07/07 08:45:32;;;;;;;3.85;1.02;;;25.10;60.40;;;;;;5055105;28;20056;-67
2022/07/07 08:47:59;;;;;;;2.08;1.27;;;25.20;60.60;;;;;;5053222;28;20029;-67
2022/07/07 08:50:26;;;;;;;2.10;1.15;;;25.00;59.80;;;;;;5054356;28;20032;-65
2022/07/07 08:52:54;;;;;;;2.72;1.05;;;25.20;59.20;;;;;;5054436;28;20029;-65
2022/07/07 08:55:23;;;;;;;3.40;1.20;;;25.50;59.50;;;;;;5053484;28;20025;-66
2022/07/07 08:57:51;;;;;;;2.70;1.73;;;25.60;59.30;;;;;;5054319;28;20094;-65
2022/07/07 09:00:17;;;;;;;2.72;1.05;;;25.70;58.90;;;;;;5053094;28;20029;-70
2022/07/07 09:02:43;;;;;;;3.30;1.02;;;25.80;59.30;;;;;;5054297;28;20039;-66
2022/07/07 09:05:09;;;;;;;5.22;1.00;;;25.90;58.60;;;;;;5054536;28;20056;-65
2022/07/07 09:08:01;;;;;;;4.50;1.23;;;25.90;57.40;;;;;;5054197;28;20056;-65
2022/07/07 09:10:32;;;;;;;2.15;1.50;;;25.20;58.30;;;;;;5052880;28;20045;-68
2022/07/07 09:12:58;;;;;;;3.75;1.42;;;24.70;59.50;;;;;;5054259;28;20032;-67
2022/07/07 09:15:24;;;;;;;3.92;1.20;;;24.30;60.40;;;;;;5053617;28;20112;-67
2022/07/07 09:17:50;;;;;;;3.38;0.90;;;24.00;61.70;;;;;;5054257;28;20116;-67
2022/07/07 09:20:16;;;;;;;1.65;1.27;;;23.80;61.50;;;;;;5053937;28;20037;-67
2022/07/07 09:22:52;;;;;;;3.53;1.30;;;23.70;61.50;;;;;;5052626;28;20032;-67
2022/07/07 09:25:20;;;;;;;5.47;1.15;;;23.50;61.90;;;;;;5053078;28;20346;-66
2022/07/07 09:27:53;;;;;;;1.77;1.27;;;23.40;63.00;;;;;;5054000;28;20487;-66
2022/07/07 09:30:38;;;;;;;3.22;1.42;;;23.10;61.20;;;;;;5054052;28;20100;-71
2022/07/07 09:33:12;;;;;;;1.85;0.90;;;22.90;61.00;;;;;;5052417;28;20036;-73
2022/07/07 09:38:25;;;;;;;2.67;0.95;;;22.80;61.40;;;;;;5053585;28;20040;-72
2022/07/07 09:40:51;;;;;;;2.88;1.15;;;22.80;61.30;;;;;;5053468;28;20525;-72
2022/07/07 09:43:18;;;;;;;2.47;1.20;;;22.80;62.00;;;;;;5053721;28;20064;-71
2022/07/07 09:46:06;;;;;;;4.40;1.10;;;22.80;62.70;;;;;;5053583;28;20044;-71
2022/07/07 09:48:33;;;;;;;4.97;1.38;;;22.80;62.70;;;;;;5053223;28;20511;-67
2022/07/07 09:51:17;;;;;;;2.35;1.00;;;22.70;62.70;;;;;;5053552;28;20115;-67
2022/07/07 09:54:12;;;;;;;3.97;1.23;;;22.40;63.50;;;;;;5053544;28;20033;-67
2022/07/07 09:56:39;;;;;;;1.25;1.15;;;22.40;63.30;;;;;;5053258;28;20028;-67
2022/07/07 09:59:10;;;;;;;3.72;1.48;;;22.40;63.40;;;;;;5053540;28;20032;-67
2022/07/07 10:01:37;;;;;;;2.50;1.02;;;22.20;64.20;;;;;;5053740;28;20108;-67
2022/07/07 10:04:08;;;;;;;1.38;1.00;;;22.30;64.60;;;;;;5052249;28;20038;-67
2022/07/07 10:06:36;;;;;;;1.90;1.30;;;22.60;65.20;;;;;;5053958;28;20025;-68
2022/07/07 10:09:05;;;;;;;2.92;1.38;;;22.70;64.90;;;;;;5053263;28;20512;-67
2022/07/07 10:11:38;;;;;;;2.45;1.13;;;22.90;64.50;;;;;;5052036;28;20531;-71
2022/07/07 10:14:10;;;;;;;2.38;0.90;;;23.10;63.50;;;;;;5053435;28;20025;-67
2022/07/07 10:16:37;;;;;;;1.02;1.00;;;23.10;61.40;;;;;;5053457;28;20021;-68
2022/07/07 10:19:03;;;;;;;3.15;1.15;;;23.10;61.30;;;;;;5053337;28;20029;-68
2022/07/07 10:21:29;;;;;;;1.83;0.90;;;23.10;61.70;;;;;;5053349;28;20060;-68
2022/07/07 10:23:56;;;;;;;2.97;1.00;;;23.10;61.10;;;;;;5053571;28;20087;-67
2022/07/07 10:26:51;;;;;;;2.50;1.30;;;23.20;61.50;;;;;;5055288;28;20049;-67
2022/07/07 10:29:35;;;;;;;2.60;1.10;;;23.20;61.30;;;;;;5057292;28;20033;-68
2022/07/07 10:32:00;;;;;;;4.57;1.45;;;23.40;62.50;;;;;;5057520;28;20017;-68
2022/07/07 10:34:28;;;;;;;3.03;1.10;;;23.30;59.80;;;;;;5057159;28;20175;-68
2022/07/07 10:37:08;;;;;;;1.17;1.13;;;23.10;59.10;;;;;;5057203;28;20040;-69
2022/07/07 10:39:46;;;;;;;4.35;1.48;;;22.90;61.40;;;;;;5057000;28;20461;-68
2022/07/07 10:42:15;;;;;;;2.15;1.33;;;23.00;62.20;;;;;;5057133;28;20379;-68
2022/07/07 10:44:45;;;;;;;1.35;1.00;;;22.90;61.30;;;;;;5056864;28;20457;-71
2022/07/07 10:47:11;;;;;;;4.25;1.38;;;22.70;62.00;;;;;;5057327;28;20042;-68
2022/07/07 10:49:41;;;;;;;4.43;1.23;;;22.90;63.30;;;;;;5056815;28;20029;-69
2022/07/07 10:52:13;;;;;;;4.68;1.83;;;23.00;62.40;;;;;;5057266;28;20064;-69
2022/07/07 10:54:50;;;;;;;3.97;1.73;;;22.90;61.40;;;;;;5056795;28;20028;-69
2022/07/07 10:57:20;;;;;;;4.20;1.20;;;22.70;61.30;;;;;;5056687;28;20107;-71
2022/07/07 11:00:09;;;;;;;6.07;1.40;;;22.60;63.20;;;;;;5056623;28;20074;-69
2022/07/07 11:02:44;;;;;;;4.63;1.67;;;22.80;63.00;;;;;;5056744;28;20025;-69
2022/07/07 11:05:10;;;;;;;5.60;2.45;;;23.00;62.60;;;;;;5056527;28;20031;-68
2022/07/07 11:07:36;;;;;;;1.98;1.35;;;23.50;62.10;;;;;;5056396;28;20025;-68
2022/07/07 11:10:11;;;;;;;1.67;1.40;;;24.40;60.10;;;;;;5056164;28;20064;-67
2022/07/07 11:12:44;;;;;;;2.47;1.15;;;24.90;58.30;;;;;;5056473;28;20195;-68
2022/07/07 11:15:15;;;;;;;2.35;0.98;;;24.50;57.90;;;;;;5055363;28;20025;-68
2022/07/07 11:17:44;;;;;;;1.95;0.80;;;23.90;58.10;;;;;;5056199;28;20075;-67
2022/07/07 11:20:18;;;;;;;5.85;1.25;;;23.40;57.60;;;;;;5055845;28;20025;-68
2022/07/07 11:23:08;;;;;;;1.05;0.80;;;22.90;58.50;;;;;;5056052;28;20083;-67
2022/07/07 11:25:34;;;;;;;2.88;0.65;;;22.50;58.40;;;;;;5056498;28;20107;-63
2022/07/07 11:28:00;;;;;;;1.02;0.75;;;22.40;61.20;;;;;;5054780;28;20476;-72
2022/07/07 11:30:28;;;;;;;1.20;0.40;;;22.20;55.90;;;;;;5054834;28;20116;-71
2022/07/07 11:32:58;;;;;;;1.00;0.60;;;21.70;57.50;;;;;;5054857;28;20048;-70
2022/07/07 11:35:28;;;;;;;0.32;0.20;;;21.30;57.90;;;;;;5055897;28;20025;-71
2022/07/07 11:37:53;;;;;;;1.80;0.40;;;20.80;59.00;;;;;;5054511;28;20033;-71
2022/07/07 11:40:19;;;;;;;0.68;0.60;;;20.50;60.90;;;;;;5054646;28;20358;-72
2022/07/07 11:42:45;;;;;;;2.50;0.40;;;20.40;61.80;;;;;;5055995;28;20021;-71
2022/07/07 11:45:25;;;;;;;1.02;0.30;;;20.20;62.70;;;;;;5055792;28;20146;-72
2022/07/07 11:47:52;;;;;;;1.25;0.50;;;20.10;63.80;;;;;;5054511;28;20033;-72
2022/07/07 11:50:18;;;;;;;0.38;0.32;;;20.10;64.70;;;;;;5054417;28;20025;-71
2022/07/07 11:52:56;;;;;;;0.93;0.40;;;20.20;64.40;;;;;;5055317;28;20021;-72
2022/07/07 11:55:22;;;;;;;0.82;0.45;;;20.20;63.50;;;;;;5055511;28;20035;-72
2022/07/07 11:57:50;;;;;;;1.33;0.70;;;19.90;64.90;;;;;;5053644;28;20512;-72
2022/07/07 12:00:19;;;;;;;1.57;0.70;;;19.70;66.90;;;;;;5053868;28;20079;-73
2022/07/07 12:02:46;;;;;;;0.80;0.80;;;19.50;68.80;;;;;;5054448;28;20029;-72
2022/07/07 12:05:12;;;;;;;0.95;0.77;;;19.20;70.50;;;;;;5055410;28;20025;-72
2022/07/07 12:07:41;;;;;;;1.02;0.73;;;19.10;72.10;;;;;;5055435;28;20040;-72
2022/07/07 12:10:25;;;;;;;3.88;1.25;;;19.00;73.50;;;;;;5055109;28;20484;-72
2022/07/07 12:12:59;;;;;;;2.65;1.05;;;18.90;75.90;;;;;;5055404;28;20029;-76
2022/07/07 12:15:34;;;;;;;1.20;0.95;;;18.60;79.40;;;;;;5053916;28;20039;-72
2022/07/07 12:18:01;;;;;;;1.95;1.20;;;18.50;82.40;;;;;;5053828;28;20065;-71
2022/07/07 12:20:27;;;;;;;1.13;1.05;;;18.30;86.10;;;;;;5053821;28;20111;-72
2022/07/07 12:22:57;;;;;;;1.48;1.08;;;18.20;90.30;;;;;;5053869;28;20436;-71
2022/07/07 12:25:29;;;;;;;6.38;1.10;;;18.10;92.20;;;;;;5053886;28;20377;-70
2022/07/07 12:28:00;;;;;;;2.38;1.48;;;18.10;94.90;;;;;;5055067;28;20036;-70
2022/07/07 12:30:31;;;;;;;2.85;1.65;;;18.00;97.50;;;;;;5054938;28;20025;-70
2022/07/07 12:32:58;;;;;;;1.67;1.30;;;18.00;99.30;;;;;;5054772;28;20469;-70
2022/07/07 12:35:26;;;;;;;1.33;1.23;;;17.90;99.90;;;;;;5054813;28;20060;-70
2022/07/07 12:37:52;;;;;;;1.45;1.33;;;17.90;99.90;;;;;;5054531;28;20033;-71
2022/07/07 12:40:18;;;;;;;4.53;1.70;;;17.80;99.90;;;;;;5053463;28;20033;-70
2022/07/07 12:42:47;;;;;;;1.73;1.27;;;17.80;99.90;;;;;;5053389;28;20484;-71
2022/07/07 12:45:14;;;;;;;4.15;1.70;;;17.80;99.90;;;;;;5054684;28;20079;-70
2022/07/07 12:47:47;;;;;;;2.05;1.83;;;17.70;99.90;;;;;;5053931;28;20544;-71
2022/07/07 12:50:13;;;;;;;1.45;1.15;;;17.70;99.90;;;;;;5054071;28;20479;-70
2022/07/07 12:52:38;;;;;;;2.33;1.77;;;17.70;99.90;;;;;;5054100;28;20021;-70